Main page
METAR-TAF:

METAR-TAF

Airports :

Begumpet Airport

Hyderabad, India

latitude: 17-27N, longitude: 078-28E, elevation: 530 m

Current weather observation

The report was made 14 minutes ago, at 07:30 UTC
Calm wind
Temperature 35°C
Humidity 17%
Pressure 1017 hPa
Visibility: 6000 m

METAR: VOHY 050730Z 00000KT 6000 NSC 35/06 Q1017 NOSIG

Time: 13:14 (07:44 UTC)

Forecast

The report was made 2 hours and 44 minutes ago, at 05:00 UTC
Forecast valid from 05 at 06 UTC to 05 at 15 UTC
Wind 6 kt from the South
Visibility: 6000 m

TAF: VOHY 050500Z 0506/0515 17006KT 6000 NSC

Weather observations and forecasts of more than 4000 airports (METAR and TAF reports).

The available stations are represented by yellow and red dots on the map.

Hover mouse over dot to see the name of the station.

Then click to see weather observations and forecasts.

To change the map : click on the green buttons with a black cross to zoom in, on the green button with a dash to zoom out, or on the green arrows for adjacent maps.


METAR-TAF: